Flight Briefing for CPX302

Departure Arrival
Daniel K Inouye International Airport (PHNL)
Click to view FAA NOTAMS
Guam International Airport (PGUM)
Click to view FAA NOTAMS
Departure Time Arrival Time
N/A N/A
Aircraft Distance
B767-300BDSF 3303nm
Departure METAR Arrival METAR
PHNL 250353Z 08013KT 10SM FEW025 FEW037 SCT080 29/19 A3004 RMK AO2 SLP172 T02940189 $ PGUM 250354Z 13006KT 10SM CLR 31/23 A2986 RMK AO2 SLP102 T03110228
Suggested Route
KEOLA2 NONNI BRIUN 2000N/17000W 1800N/18000E 1600N/17000E 1500N/16000E 1500N/15000E DEWSS


View recent IFR Routes data
Notes



Charts and Procedures

Charts for PHNL
No chart available
Charts for PGUM
No chart available

Windy.com Weather Map